Time;durP1;ratioP1;P1;durP2;ratioP2;P2;SDS_P1;SDS_P2;PMS_P1;PMS_P2;Temp;Humidity;BMP_temperature;BMP_pressure;BME280_temperature;BME280_humidity;BME280_pressure;Samples;Min_cycle;Max_cycle;Signal;HPM_P1;HPM_P2
2023/06/03 00:01:03;;;;;;;2.38;0.80;;;17.00;99.30;;;;;;5094988;28;20475;-57
2023/06/03 00:03:31;;;;;;;3.80;1.10;;;16.90;99.80;;;;;;5095717;28;20706;-55
2023/06/03 00:05:59;;;;;;;1.77;0.80;;;16.80;99.90;;;;;;5095260;28;20781;-56
2023/06/03 00:08:28;;;;;;;1.80;0.90;;;16.80;99.90;;;;;;5094988;28;20475;-56
2023/06/03 00:10:55;;;;;;;2.53;0.90;;;16.80;99.90;;;;;;5094804;28;20426;-55
2023/06/03 00:13:22;;;;;;;2.30;0.90;;;16.80;99.90;;;;;;5095695;28;20425;-56
2023/06/03 00:15:49;;;;;;;1.90;0.90;;;16.80;99.90;;;;;;5094752;28;20433;-59
2023/06/03 00:18:16;;;;;;;2.05;0.80;;;16.70;99.90;;;;;;5094581;28;20483;-59
2023/06/03 00:20:47;;;;;;;4.88;1.00;;;16.80;99.90;;;;;;5094890;28;20516;-59
2023/06/03 00:23:15;;;;;;;1.48;0.80;;;16.80;99.90;;;;;;5094412;28;20826;-58
2023/06/03 00:25:43;;;;;;;3.45;0.80;;;16.80;99.90;;;;;;5094246;28;20418;-58
2023/06/03 00:28:11;;;;;;;3.97;0.98;;;16.80;99.90;;;;;;5093855;28;20468;-57
2023/06/03 00:30:38;;;;;;;2.60;0.90;;;16.80;99.90;;;;;;5095021;28;20430;-58
2023/06/03 00:33:05;;;;;;;2.33;0.90;;;16.80;99.90;;;;;;5094735;28;20418;-59
2023/06/03 00:35:33;;;;;;;1.85;0.70;;;16.70;99.90;;;;;;5095105;28;20925;-58
2023/06/03 00:38:00;;;;;;;2.30;0.80;;;16.70;99.90;;;;;;5094881;28;20453;-59
2023/06/03 00:40:27;;;;;;;3.03;0.80;;;16.70;99.90;;;;;;5094827;28;20502;-59
2023/06/03 00:42:55;;;;;;;1.88;1.00;;;16.70;99.90;;;;;;5094724;28;20433;-58
2023/06/03 00:45:22;;;;;;;2.80;0.82;;;16.60;99.90;;;;;;5094405;28;20426;-58
2023/06/03 00:47:49;;;;;;;2.30;0.90;;;16.50;99.90;;;;;;5094786;28;20417;-58
2023/06/03 00:50:17;;;;;;;3.40;0.80;;;16.40;99.90;;;;;;5094254;28;20479;-58
2023/06/03 00:52:45;;;;;;;1.50;0.80;;;16.40;99.90;;;;;;5093918;28;20414;-58
2023/06/03 00:55:12;;;;;;;3.80;0.90;;;16.40;99.90;;;;;;5094441;28;20483;-58
2023/06/03 00:57:39;;;;;;;1.30;1.10;;;16.30;99.90;;;;;;5095834;28;20425;-59
2023/06/03 01:00:09;;;;;;;1.43;0.90;;;16.30;99.90;;;;;;5097587;28;20512;-59
2023/06/03 01:02:43;;;;;;;1.90;0.80;;;16.40;99.90;;;;;;5098435;28;20513;-59
2023/06/03 01:05:11;;;;;;;1.60;0.80;;;16.40;99.90;;;;;;5097194;28;20806;-59
2023/06/03 01:07:50;;;;;;;1.23;0.70;;;16.30;99.90;;;;;;5097417;28;20418;-58
2023/06/03 01:10:22;;;;;;;1.90;0.90;;;16.20;99.90;;;;;;5097683;28;20444;-58
2023/06/03 01:12:58;;;;;;;2.88;0.80;;;16.20;99.90;;;;;;5098058;28;20425;-57
2023/06/03 01:15:28;;;;;;;4.03;0.90;;;16.20;99.90;;;;;;5098173;28;20422;-59
2023/06/03 01:18:00;;;;;;;4.00;0.70;;;16.20;99.90;;;;;;5097980;28;20430;-58
2023/06/03 01:20:28;;;;;;;2.35;0.80;;;16.20;99.90;;;;;;5097709;28;20801;-58
2023/06/03 01:23:06;;;;;;;3.17;0.85;;;16.10;99.90;;;;;;5096767;28;20425;-58
2023/06/03 01:25:35;;;;;;;2.33;0.80;;;16.10;99.90;;;;;;5097593;28;20429;-59
2023/06/03 01:28:03;;;;;;;2.45;0.80;;;16.10;99.90;;;;;;5097949;28;20425;-58
2023/06/03 01:30:30;;;;;;;2.10;0.70;;;16.20;99.90;;;;;;5097492;28;20441;-58
2023/06/03 01:32:57;;;;;;;2.65;0.90;;;16.00;99.90;;;;;;5097935;28;20426;-58
2023/06/03 01:35:25;;;;;;;1.40;0.80;;;15.90;99.90;;;;;;5097745;28;20430;-58
2023/06/03 01:37:53;;;;;;;2.90;0.80;;;15.80;99.90;;;;;;5096873;28;20422;-61
2023/06/03 01:40:21;;;;;;;1.60;0.70;;;15.80;99.90;;;;;;5097184;28;20470;-59
2023/06/03 01:42:48;;;;;;;2.60;1.20;;;15.90;99.90;;;;;;5097433;28;20483;-59
2023/06/03 01:45:16;;;;;;;2.70;0.80;;;15.90;99.90;;;;;;5097623;28;20825;-59
2023/06/03 01:47:43;;;;;;;2.55;0.80;;;15.80;99.90;;;;;;5097269;28;20865;-58
2023/06/03 01:50:11;;;;;;;2.67;0.80;;;15.90;99.90;;;;;;5096977;28;20495;-59
2023/06/03 01:52:38;;;;;;;2.30;0.80;;;15.90;99.90;;;;;;5096287;28;20418;-59
2023/06/03 01:55:06;;;;;;;2.03;0.80;;;16.00;99.90;;;;;;5096843;28;20566;-58
2023/06/03 01:57:35;;;;;;;1.80;0.80;;;16.00;99.90;;;;;;5096987;28;20486;-59
2023/06/03 02:00:06;;;;;;;1.83;0.80;;;15.90;99.90;;;;;;5096597;28;20518;-59
2023/06/03 02:02:33;;;;;;;1.20;0.80;;;15.80;99.90;;;;;;5096469;28;20483;-57
2023/06/03 02:05:00;;;;;;;2.40;0.80;;;15.60;99.90;;;;;;5096306;28;20437;-56
2023/06/03 02:07:30;;;;;;;2.50;0.80;;;15.60;99.90;;;;;;5096692;28;20426;-56
2023/06/03 02:09:57;;;;;;;2.38;0.80;;;15.70;99.90;;;;;;5095430;28;20915;-57
2023/06/03 02:12:24;;;;;;;2.45;0.90;;;15.70;99.90;;;;;;5096442;28;20759;-55
2023/06/03 02:14:53;;;;;;;2.42;0.80;;;15.80;99.90;;;;;;5096397;28;20428;-57
2023/06/03 02:17:22;;;;;;;1.73;0.80;;;15.80;99.90;;;;;;5095531;28;20453;-57
2023/06/03 02:19:49;;;;;;;2.88;0.80;;;15.80;99.90;;;;;;5093980;28;20461;-57
2023/06/03 02:22:17;;;;;;;2.80;0.80;;;15.80;99.90;;;;;;5095577;28;20421;-55
2023/06/03 02:24:46;;;;;;;2.38;1.00;;;15.80;99.90;;;;;;5095290;28;20483;-54
2023/06/03 02:27:14;;;;;;;1.63;0.80;;;15.80;99.90;;;;;;5096230;28;20841;-56
2023/06/03 02:29:42;;;;;;;1.20;0.80;;;15.70;99.90;;;;;;5096645;28;20418;-54
2023/06/03 02:32:11;;;;;;;2.08;0.90;;;15.60;99.90;;;;;;5095352;28;20434;-57
2023/06/03 02:34:38;;;;;;;1.95;0.90;;;15.40;99.90;;;;;;5094853;28;20418;-57
2023/06/03 02:37:05;;;;;;;1.40;0.80;;;15.30;99.90;;;;;;5096246;28;20780;-54
2023/06/03 02:39:32;;;;;;;2.30;0.90;;;15.40;99.90;;;;;;5096474;28;20850;-55
2023/06/03 02:41:59;;;;;;;1.88;0.90;;;15.40;99.90;;;;;;5096053;28;20487;-56
2023/06/03 02:44:26;;;;;;;1.25;0.90;;;15.40;99.90;;;;;;5095444;28;20524;-51
2023/06/03 02:46:53;;;;;;;2.60;1.17;;;15.50;99.90;;;;;;5096038;28;20422;-55
2023/06/03 02:49:21;;;;;;;2.88;0.90;;;15.40;99.90;;;;;;5096086;28;20425;-55
2023/06/03 02:51:48;;;;;;;1.80;0.90;;;15.40;99.90;;;;;;5096215;28;20694;-55
2023/06/03 02:54:15;;;;;;;1.80;0.90;;;15.40;99.90;;;;;;5096135;28;20430;-55
2023/06/03 02:56:42;;;;;;;2.17;0.80;;;15.30;99.90;;;;;;5095906;28;20766;-56
2023/06/03 02:59:10;;;;;;;2.53;0.95;;;15.20;99.90;;;;;;5095074;28;20433;-56
2023/06/03 03:01:37;;;;;;;2.15;0.80;;;15.10;99.90;;;;;;5095611;28;20837;-55
2023/06/03 03:04:04;;;;;;;2.10;0.90;;;15.00;99.90;;;;;;5095272;28;20765;-55
2023/06/03 03:06:37;;;;;;;1.02;0.80;;;14.90;99.90;;;;;;5095989;28;20491;-54
2023/06/03 03:09:04;;;;;;;2.00;0.90;;;14.90;99.90;;;;;;5095627;28;20432;-54
2023/06/03 03:11:31;;;;;;;2.90;0.90;;;14.80;99.90;;;;;;5094555;28;20745;-56
2023/06/03 03:13:58;;;;;;;1.50;0.90;;;14.80;99.90;;;;;;5095119;28;20486;-53
2023/06/03 03:16:26;;;;;;;2.60;0.90;;;14.80;99.90;;;;;;5095232;28;20424;-55
2023/06/03 03:18:53;;;;;;;2.97;1.00;;;14.70;99.90;;;;;;5094951;28;20430;-57
2023/06/03 03:21:20;;;;;;;1.52;0.90;;;14.70;99.90;;;;;;5094776;28;20792;-54
2023/06/03 03:23:48;;;;;;;1.70;0.80;;;14.70;99.90;;;;;;5093666;28;20422;-53
2023/06/03 03:26:15;;;;;;;1.75;1.00;;;14.70;99.90;;;;;;5093718;28;20483;-55
2023/06/03 03:28:42;;;;;;;2.22;1.00;;;14.80;99.90;;;;;;5093552;28;20417;-57
2023/06/03 03:31:11;;;;;;;2.80;0.90;;;14.80;99.90;;;;;;5093035;28;20417;-57
2023/06/03 03:33:38;;;;;;;2.10;0.80;;;14.80;99.90;;;;;;5094073;28;20483;-56
2023/06/03 03:36:11;;;;;;;1.52;0.80;;;14.90;99.90;;;;;;5093338;28;20430;-57
2023/06/03 03:38:38;;;;;;;4.28;0.90;;;14.90;99.90;;;;;;5094383;28;20855;-58
2023/06/03 03:41:07;;;;;;;2.03;0.90;;;14.90;99.90;;;;;;5094674;28;20861;-56
2023/06/03 03:43:34;;;;;;;2.00;1.00;;;14.90;99.90;;;;;;5094563;28;20421;-56
2023/06/03 03:46:02;;;;;;;2.13;0.90;;;14.90;99.90;;;;;;5094994;28;20497;-57
2023/06/03 03:48:30;;;;;;;3.22;0.90;;;14.70;99.90;;;;;;5095067;28;20433;-55
2023/06/03 03:50:58;;;;;;;3.47;0.90;;;14.70;99.90;;;;;;5094994;28;20520;-57
2023/06/03 03:53:30;;;;;;;2.20;0.80;;;14.60;99.90;;;;;;5095424;28;20520;-57
2023/06/03 03:55:58;;;;;;;1.80;0.90;;;14.60;99.90;;;;;;5094820;28;20483;-55
2023/06/03 03:58:28;;;;;;;1.92;0.90;;;14.60;99.90;;;;;;5094158;28;20900;-57
2023/06/03 04:00:59;;;;;;;3.00;1.00;;;14.60;99.90;;;;;;5093469;28;20445;-55
2023/06/03 04:03:27;;;;;;;1.60;0.80;;;14.70;99.90;;;;;;5092705;28;20433;-57
2023/06/03 04:05:55;;;;;;;1.77;0.80;;;14.60;99.90;;;;;;5093784;28;20800;-58
2023/06/03 04:08:38;;;;;;;2.40;1.00;;;14.70;99.90;;;;;;5094966;28;20900;-57
2023/06/03 04:11:06;;;;;;;2.70;0.90;;;14.70;99.90;;;;;;5094388;28;20425;-57
2023/06/03 04:13:40;;;;;;;2.58;0.95;;;14.80;99.90;;;;;;5093590;28;20418;-58
2023/06/03 04:16:11;;;;;;;2.85;0.90;;;14.80;99.90;;;;;;5094593;28;20445;-56
2023/06/03 04:18:42;;;;;;;3.72;1.02;;;14.90;99.90;;;;;;5094472;28;20426;-55
2023/06/03 04:21:15;;;;;;;4.57;1.00;;;14.90;99.90;;;;;;5093736;28;20503;-57
2023/06/03 04:23:42;;;;;;;3.20;0.90;;;14.90;99.90;;;;;;5093748;28;20880;-56
2023/06/03 04:26:10;;;;;;;1.80;0.90;;;14.90;99.90;;;;;;5094364;28;20548;-56
2023/06/03 04:28:40;;;;;;;2.83;0.90;;;14.80;99.90;;;;;;5093941;28;20414;-56
2023/06/03 04:31:07;;;;;;;2.67;0.90;;;14.70;99.90;;;;;;5094115;28;20413;-56
2023/06/03 04:33:34;;;;;;;2.00;0.98;;;14.70;99.90;;;;;;5097795;28;20569;-56
2023/06/03 04:36:01;;;;;;;3.30;0.95;;;14.70;99.90;;;;;;5098982;28;20479;-56
2023/06/03 04:38:28;;;;;;;2.50;0.98;;;14.70;99.90;;;;;;5097865;28;20848;-56
2023/06/03 04:40:55;;;;;;;2.95;0.98;;;14.70;99.90;;;;;;5098121;28;20438;-57
2023/06/03 04:43:24;;;;;;;2.40;1.10;;;14.60;99.90;;;;;;5098143;28;20421;-57
2023/06/03 04:45:54;;;;;;;2.25;1.00;;;14.70;99.90;;;;;;5099016;28;20430;-57
2023/06/03 04:48:22;;;;;;;1.70;0.80;;;14.70;99.90;;;;;;5098216;28;20767;-56
2023/06/03 04:50:49;;;;;;;2.00;0.90;;;14.70;99.90;;;;;;5098552;28;20422;-56
2023/06/03 04:53:16;;;;;;;1.67;0.90;;;14.80;99.90;;;;;;5098445;28;20429;-56
2023/06/03 04:55:44;;;;;;;2.40;1.00;;;14.80;99.90;;;;;;5098160;28;20434;-55
2023/06/03 04:58:12;;;;;;;2.60;1.00;;;14.90;99.90;;;;;;5098312;28;20421;-56
2023/06/03 05:00:40;;;;;;;3.53;1.00;;;14.90;99.90;;;;;;5097987;28;20460;-56
2023/06/03 05:03:09;;;;;;;1.88;0.90;;;14.90;99.90;;;;;;5097417;28;20532;-56
2023/06/03 05:05:39;;;;;;;2.95;1.00;;;14.80;99.90;;;;;;5098226;28;20425;-57
2023/06/03 05:08:06;;;;;;;2.50;0.93;;;14.80;99.90;;;;;;5098168;28;20845;-53
2023/06/03 05:10:33;;;;;;;2.23;1.00;;;14.80;99.90;;;;;;5097536;28;20460;-54
2023/06/03 05:13:00;;;;;;;1.75;0.80;;;14.90;99.90;;;;;;5097841;28;20475;-57
2023/06/03 05:15:27;;;;;;;1.67;1.02;;;15.00;99.90;;;;;;5098121;28;20494;-58
2023/06/03 05:17:54;;;;;;;1.50;1.00;;;14.90;99.90;;;;;;5097663;28;20434;-57
2023/06/03 05:20:24;;;;;;;2.05;1.10;;;14.80;99.90;;;;;;5097495;28;20456;-56
2023/06/03 05:22:51;;;;;;;3.03;0.90;;;14.90;99.90;;;;;;5097491;28;20414;-58
2023/06/03 05:25:18;;;;;;;4.25;1.10;;;15.00;99.90;;;;;;5097719;28;20418;-57
2023/06/03 05:27:45;;;;;;;2.65;1.10;;;15.10;99.90;;;;;;5097589;28;20425;-55
2023/06/03 05:30:13;;;;;;;1.80;0.90;;;15.10;99.90;;;;;;5097465;28;20422;-57
2023/06/03 05:32:41;;;;;;;4.03;0.98;;;15.20;99.90;;;;;;5094660;28;20510;-54
2023/06/03 05:35:09;;;;;;;1.77;0.90;;;15.20;99.90;;;;;;5094409;28;20421;-53
2023/06/03 05:37:37;;;;;;;2.40;1.00;;;15.30;99.90;;;;;;5095994;28;20493;-57
2023/06/03 05:40:06;;;;;;;1.77;0.90;;;15.40;99.90;;;;;;5095654;28;20420;-55
2023/06/03 05:42:33;;;;;;;2.40;1.00;;;15.40;99.90;;;;;;5094364;28;20447;-56
2023/06/03 05:45:00;;;;;;;2.47;0.90;;;15.40;99.90;;;;;;5095511;28;21076;-52
2023/06/03 05:47:27;;;;;;;2.10;0.80;;;15.40;99.90;;;;;;5095171;28;20528;-51
2023/06/03 05:49:54;;;;;;;2.30;0.97;;;15.40;99.90;;;;;;5095365;28;20437;-53
2023/06/03 05:52:21;;;;;;;2.22;1.00;;;15.40;99.90;;;;;;5095033;28;20544;-51
2023/06/03 05:54:50;;;;;;;2.75;1.10;;;15.30;99.90;;;;;;5095817;28;20444;-51
2023/06/03 05:57:17;;;;;;;3.90;0.90;;;15.20;99.90;;;;;;5095276;28;20512;-54
2023/06/03 05:59:45;;;;;;;6.13;1.60;;;15.30;99.90;;;;;;5094009;28;20569;-54
2023/06/03 06:02:12;;;;;;;1.95;1.00;;;15.40;99.90;;;;;;5095473;28;20491;-53
2023/06/03 06:04:39;;;;;;;4.07;1.00;;;15.50;99.90;;;;;;5095636;28;20520;-53
2023/06/03 06:07:06;;;;;;;1.80;0.90;;;15.70;99.90;;;;;;5105784;28;20732;-54
2023/06/03 06:09:33;;;;;;;3.20;1.00;;;15.80;99.90;;;;;;5105451;28;20521;-52
2023/06/03 06:12:02;;;;;;;2.70;1.00;;;16.00;99.90;;;;;;5094904;28;20441;-52
2023/06/03 06:14:29;;;;;;;1.70;1.00;;;16.20;99.90;;;;;;5095455;28;20430;-55
2023/06/03 06:16:56;;;;;;;1.27;0.90;;;16.20;99.90;;;;;;5094849;28;20428;-50
2023/06/03 06:19:24;;;;;;;2.00;0.93;;;16.30;99.90;;;;;;5094689;28;20441;-51
2023/06/03 06:21:51;;;;;;;2.00;0.90;;;16.30;99.90;;;;;;5095111;28;20441;-50
2023/06/03 06:24:18;;;;;;;4.00;1.10;;;16.40;99.90;;;;;;5092182;28;20483;-55
2023/06/03 06:26:45;;;;;;;2.10;1.00;;;16.50;99.90;;;;;;5093382;28;20433;-55
2023/06/03 06:29:14;;;;;;;2.65;1.00;;;16.40;99.90;;;;;;5094662;28;20430;-56
2023/06/03 06:31:41;;;;;;;2.40;1.00;;;16.50;99.90;;;;;;5027932;28;1853123;-55
2023/06/03 06:34:10;;;;;;;3.77;0.93;;;16.40;99.90;;;;;;5094390;28;20442;-55
2023/06/03 06:36:43;;;;;;;1.95;0.90;;;16.40;99.90;;;;;;5095513;28;20417;-54
2023/06/03 06:39:47;;;;;;;2.10;1.00;;;16.50;99.90;;;;;;5096082;28;20897;-53
2023/06/03 06:42:16;;;;;;;1.70;1.10;;;16.70;99.90;;;;;;5013380;28;20466;-53
2023/06/03 06:44:47;;;;;;;2.10;1.00;;;16.50;99.90;;;;;;5091877;28;20561;-55
2023/06/03 06:47:20;;;;;;;1.75;1.00;;;16.70;99.90;;;;;;5093686;28;20518;-53
2023/06/03 06:49:47;;;;;;;3.20;0.95;;;16.70;99.90;;;;;;5093782;28;20422;-52
2023/06/03 06:52:15;;;;;;;2.35;1.00;;;16.70;99.90;;;;;;5093501;28;20932;-54
2023/06/03 06:54:42;;;;;;;1.75;0.90;;;16.70;99.90;;;;;;5093735;28;20429;-56
2023/06/03 06:57:10;;;;;;;1.83;1.00;;;16.80;99.90;;;;;;5093805;28;20437;-53
2023/06/03 06:59:37;;;;;;;4.28;0.95;;;16.90;99.90;;;;;;5094501;28;20487;-49
2023/06/03 07:02:05;;;;;;;1.80;1.00;;;17.10;99.90;;;;;;5099281;28;20938;-52
2023/06/03 07:04:32;;;;;;;3.05;1.00;;;17.30;99.90;;;;;;5094021;28;20790;-55
2023/06/03 07:06:59;;;;;;;2.20;1.10;;;17.20;99.90;;;;;;5094727;28;20783;-53
2023/06/03 07:09:26;;;;;;;2.60;1.10;;;17.30;99.90;;;;;;5093945;28;20491;-52
2023/06/03 07:11:53;;;;;;;4.00;1.00;;;17.30;99.90;;;;;;5094932;28;20487;-56
2023/06/03 07:14:20;;;;;;;1.58;1.15;;;17.30;99.90;;;;;;5092721;28;20495;-50
2023/06/03 07:16:48;;;;;;;2.55;1.40;;;17.30;99.90;;;;;;5092261;28;20483;-50
2023/06/03 07:19:16;;;;;;;2.42;0.93;;;17.30;99.90;;;;;;5109028;28;20468;-52
2023/06/03 07:21:43;;;;;;;2.72;1.00;;;17.30;99.90;;;;;;5114924;28;20860;-51
2023/06/03 07:24:12;;;;;;;2.10;1.05;;;17.60;99.90;;;;;;5113807;28;20432;-53
2023/06/03 07:26:40;;;;;;;2.90;1.20;;;17.80;99.90;;;;;;5100530;28;20456;-52
2023/06/03 07:29:07;;;;;;;2.40;1.00;;;17.90;99.90;;;;;;5092900;28;20623;-54
2023/06/03 07:31:36;;;;;;;2.40;1.02;;;18.00;99.90;;;;;;5092398;28;20448;-58
2023/06/03 07:34:05;;;;;;;1.65;1.00;;;18.10;99.90;;;;;;5094866;28;20449;-57
2023/06/03 07:36:34;;;;;;;2.17;1.00;;;18.10;99.90;;;;;;5091036;28;20524;-58
2023/06/03 07:39:06;;;;;;;3.55;1.02;;;18.30;99.90;;;;;;5093052;28;20815;-58
2023/06/03 07:41:37;;;;;;;3.10;1.20;;;18.40;99.90;;;;;;5092341;28;20437;-57
2023/06/03 07:44:07;;;;;;;3.10;1.10;;;18.40;99.90;;;;;;5091191;28;20482;-54
2023/06/03 07:46:39;;;;;;;2.13;1.15;;;18.40;99.90;;;;;;5090496;28;20529;-57
2023/06/03 07:49:09;;;;;;;1.98;1.00;;;18.30;99.90;;;;;;5092974;28;20554;-57
2023/06/03 07:51:40;;;;;;;3.15;1.10;;;18.50;99.90;;;;;;5093711;28;20725;-57
2023/06/03 07:54:08;;;;;;;2.50;1.13;;;18.70;99.90;;;;;;5094872;28;20904;-58
2023/06/03 07:56:35;;;;;;;2.38;1.00;;;18.70;99.90;;;;;;5092954;28;20529;-57
2023/06/03 07:59:04;;;;;;;2.92;1.10;;;18.70;99.90;;;;;;5090754;28;20919;-56
2023/06/03 08:01:32;;;;;;;1.67;1.00;;;18.70;99.90;;;;;;5092373;28;20425;-57
2023/06/03 08:04:01;;;;;;;2.80;1.20;;;18.80;99.90;;;;;;5092976;28;20608;-57
2023/06/03 08:06:28;;;;;;;1.45;1.10;;;18.70;99.90;;;;;;5093432;28;20494;-57
2023/06/03 08:08:59;;;;;;;1.42;1.00;;;18.70;99.90;;;;;;5095301;28;20442;-58
2023/06/03 08:11:26;;;;;;;3.70;1.15;;;18.70;99.90;;;;;;5098006;28;20432;-56
2023/06/03 08:13:55;;;;;;;2.58;1.10;;;18.90;99.90;;;;;;5100823;28;20526;-59
2023/06/03 08:16:22;;;;;;;1.70;1.02;;;19.00;99.90;;;;;;5102466;28;20434;-58
2023/06/03 08:18:54;;;;;;;2.80;1.15;;;19.30;99.90;;;;;;5112878;28;20444;-58
2023/06/03 08:21:28;;;;;;;2.30;1.10;;;19.40;99.90;;;;;;5097266;28;20459;-59
2023/06/03 08:23:55;;;;;;;3.53;1.10;;;19.50;99.90;;;;;;5100346;28;20528;-56
2023/06/03 08:26:23;;;;;;;3.10;1.00;;;19.60;99.90;;;;;;5100839;28;20442;-58
2023/06/03 08:28:50;;;;;;;2.00;1.20;;;19.70;99.90;;;;;;5103927;28;20429;-58
2023/06/03 08:31:17;;;;;;;3.50;1.20;;;19.80;99.90;;;;;;5103811;28;20441;-58
2023/06/03 08:33:44;;;;;;;2.43;1.00;;;19.90;99.90;;;;;;5105356;28;20433;-58
2023/06/03 08:36:11;;;;;;;2.40;1.17;;;19.80;99.90;;;;;;5101428;28;20446;-59
2023/06/03 08:38:40;;;;;;;2.50;1.20;;;19.80;99.90;;;;;;5103221;28;20434;-58
2023/06/03 08:41:07;;;;;;;1.60;1.00;;;19.60;99.90;;;;;;5105828;28;20516;-58
2023/06/03 08:43:44;;;;;;;1.63;0.90;;;19.60;99.90;;;;;;5096001;28;20453;-58
2023/06/03 08:46:22;;;;;;;2.75;1.20;;;19.70;99.90;;;;;;5095797;28;20469;-58
2023/06/03 08:49:01;;;;;;;2.20;1.00;;;20.10;99.90;;;;;;5118175;28;20420;-53
2023/06/03 08:51:29;;;;;;;2.25;1.13;;;20.40;99.90;;;;;;5105490;28;20848;-56
2023/06/03 08:53:56;;;;;;;2.13;1.10;;;20.60;99.90;;;;;;5096801;28;20422;-56
2023/06/03 08:56:26;;;;;;;2.42;1.20;;;20.50;99.90;;;;;;5096719;28;20448;-56
2023/06/03 08:59:01;;;;;;;1.98;1.08;;;20.50;99.90;;;;;;5099836;28;20441;-56
2023/06/03 09:01:31;;;;;;;3.40;1.17;;;20.40;99.90;;;;;;5097123;28;20434;-57
2023/06/03 09:03:59;;;;;;;1.65;1.10;;;20.50;99.90;;;;;;5101880;28;20909;-56
2023/06/03 09:06:27;;;;;;;2.70;1.20;;;20.60;99.90;;;;;;5106339;28;20432;-58
2023/06/03 09:08:55;;;;;;;1.80;1.00;;;20.60;99.90;;;;;;5100705;28;20446;-57
2023/06/03 09:11:23;;;;;;;2.80;1.10;;;20.80;99.90;;;;;;5096442;28;20893;-58
2023/06/03 09:13:53;;;;;;;1.40;1.10;;;21.10;99.90;;;;;;5096000;28;20437;-60
2023/06/03 09:16:21;;;;;;;3.10;1.20;;;21.20;99.90;;;;;;5095669;28;20716;-60
2023/06/03 09:18:52;;;;;;;2.70;1.10;;;21.20;99.90;;;;;;5095250;28;20445;-59
2023/06/03 09:21:20;;;;;;;2.47;1.20;;;21.60;99.90;;;;;;5110482;28;20483;-60
2023/06/03 09:23:47;;;;;;;2.70;1.20;;;21.70;99.90;;;;;;5098397;28;20438;-60
2023/06/03 09:26:14;;;;;;;2.15;1.00;;;21.70;99.90;;;;;;5096859;28;20793;-60
2023/06/03 09:28:41;;;;;;;3.25;1.20;;;21.80;99.90;;;;;;5096592;28;20420;-57
2023/06/03 09:31:08;;;;;;;3.13;1.20;;;22.00;99.90;;;;;;5096039;28;20495;-60
2023/06/03 09:33:37;;;;;;;2.70;1.10;;;22.10;99.90;;;;;;5103074;28;20438;-59
2023/06/03 09:36:10;;;;;;;1.70;1.20;;;21.90;99.90;;;;;;5094564;28;20937;-59
2023/06/03 09:38:51;;;;;;;3.08;1.13;;;22.10;99.90;;;;;;5095592;28;20430;-59
2023/06/03 09:41:19;;;;;;;4.82;1.55;;;22.20;99.90;;;;;;5095088;28;20465;-59
2023/06/03 09:43:54;;;;;;;2.20;1.20;;;22.40;99.90;;;;;;5095524;28;20442;-60
2023/06/03 09:46:21;;;;;;;1.42;1.00;;;22.60;99.90;;;;;;5095495;28;20561;-57
2023/06/03 09:48:50;;;;;;;2.30;1.17;;;22.60;99.90;;;;;;5095069;28;20534;-59
2023/06/03 09:51:17;;;;;;;1.80;1.10;;;22.70;99.90;;;;;;5095880;28;20492;-59
2023/06/03 09:53:44;;;;;;;2.20;1.10;;;22.80;99.90;;;;;;5098539;28;20441;-58
2023/06/03 09:56:26;;;;;;;2.88;1.10;;;23.00;99.90;;;;;;5093635;28;20807;-58
2023/06/03 09:59:15;;;;;;;1.65;1.20;;;23.00;99.90;;;;;;5100446;28;20424;-58
2023/06/03 10:01:42;;;;;;;1.90;1.30;;;22.90;99.90;;;;;;5102663;28;20993;-59
2023/06/03 10:04:10;;;;;;;1.45;1.20;;;23.10;99.90;;;;;;5099891;28;20869;-59
2023/06/03 10:06:38;;;;;;;2.15;1.15;;;23.50;99.90;;;;;;5106404;28;20441;-58
2023/06/03 10:09:22;;;;;;;1.50;1.15;;;23.30;99.90;;;;;;5095728;28;20452;-57
2023/06/03 10:11:51;;;;;;;2.38;1.25;;;23.40;99.90;;;;;;5095158;28;20469;-58
2023/06/03 10:14:25;;;;;;;2.25;1.20;;;23.80;99.90;;;;;;5096753;28;22098;-58
2023/06/03 10:17:07;;;;;;;1.80;1.10;;;24.20;99.90;;;;;;5095351;28;20462;-58
2023/06/03 10:19:37;;;;;;;2.70;1.30;;;24.30;99.90;;;;;;5091182;28;20809;-59
2023/06/03 10:22:06;;;;;;;1.40;1.20;;;24.50;99.90;;;;;;5092248;28;20860;-58
2023/06/03 10:24:35;;;;;;;2.08;1.10;;;24.60;99.90;;;;;;5095419;28;20499;-58
2023/06/03 10:27:02;;;;;;;1.90;1.10;;;24.30;99.90;;;;;;5095107;28;20445;-58
2023/06/03 10:29:30;;;;;;;2.47;1.00;;;24.60;99.90;;;;;;5094989;28;20433;-58
2023/06/03 10:31:58;;;;;;;2.83;1.30;;;25.00;99.40;;;;;;5099534;28;20544;-58
2023/06/03 10:34:25;;;;;;;1.80;1.10;;;25.30;98.00;;;;;;5101832;28;21021;-58
2023/06/03 10:36:57;;;;;;;1.97;1.10;;;25.40;97.90;;;;;;5100690;28;21110;-58
2023/06/03 10:39:25;;;;;;;1.65;1.20;;;25.80;96.60;;;;;;5116301;28;20428;-58
2023/06/03 10:41:55;;;;;;;3.30;1.50;;;26.10;95.90;;;;;;5095657;28;20545;-58
2023/06/03 10:44:22;;;;;;;3.20;1.30;;;26.30;93.90;;;;;;5095171;28;20533;-58
2023/06/03 10:46:56;;;;;;;2.42;1.20;;;26.20;94.10;;;;;;5096641;28;20436;-58
2023/06/03 10:49:27;;;;;;;3.05;1.20;;;26.50;93.70;;;;;;5101869;28;20437;-57
2023/06/03 10:52:20;;;;;;;2.20;1.30;;;27.00;92.30;;;;;;5094891;28;20434;-57
2023/06/03 10:54:55;;;;;;;2.00;1.37;;;27.20;91.10;;;;;;5095736;28;20496;-57
2023/06/03 10:57:32;;;;;;;1.20;1.03;;;27.50;89.60;;;;;;5095711;28;21034;-60
2023/06/03 10:59:59;;;;;;;2.63;1.10;;;27.40;87.30;;;;;;5098530;28;20807;-57
2023/06/03 11:02:26;;;;;;;1.77;1.20;;;27.20;88.10;;;;;;5096875;28;20428;-58
2023/06/03 11:05:22;;;;;;;2.20;1.35;;;27.00;87.30;;;;;;5099400;28;20528;-59
2023/06/03 11:07:50;;;;;;;2.15;1.40;;;26.80;87.40;;;;;;5103304;28;20515;-58
2023/06/03 11:10:42;;;;;;;2.40;1.10;;;27.00;87.40;;;;;;5110661;28;20433;-58
2023/06/03 11:13:12;;;;;;;2.28;1.30;;;27.10;86.90;;;;;;5095145;28;20434;-58
2023/06/03 11:16:00;;;;;;;1.70;1.30;;;27.50;84.50;;;;;;5094515;28;20533;-58
2023/06/03 11:18:28;;;;;;;1.40;1.20;;;27.30;83.80;;;;;;5093896;28;20527;-59
2023/06/03 11:20:56;;;;;;;2.80;1.20;;;27.20;83.30;;;;;;5096142;28;20437;-58
2023/06/03 11:23:46;;;;;;;1.80;1.20;;;26.80;83.10;;;;;;5096978;28;20780;-59
2023/06/03 11:26:33;;;;;;;1.70;1.30;;;26.80;81.00;;;;;;5099187;28;20431;-59
2023/06/03 11:29:01;;;;;;;1.80;1.23;;;26.80;82.80;;;;;;5100385;28;20520;-59
2023/06/03 11:31:29;;;;;;;2.60;1.10;;;26.80;81.50;;;;;;5098750;28;20863;-59
2023/06/03 11:34:23;;;;;;;1.50;1.10;;;26.90;81.10;;;;;;5093993;28;20466;-60
2023/06/03 11:36:51;;;;;;;2.20;1.20;;;27.10;79.00;;;;;;5100146;28;21025;-59
2023/06/03 11:39:20;;;;;;;1.90;1.30;;;27.50;78.80;;;;;;5095289;28;20429;-59
2023/06/03 11:42:03;;;;;;;1.88;1.10;;;27.70;79.00;;;;;;5098518;28;20597;-58
2023/06/03 11:44:31;;;;;;;2.13;1.20;;;28.20;75.80;;;;;;5098686;28;20436;-58
2023/06/03 11:46:58;;;;;;;2.10;1.15;;;28.50;72.00;;;;;;5095243;28;20442;-59
2023/06/03 11:49:25;;;;;;;1.57;1.20;;;29.00;69.10;;;;;;5095651;28;20437;-59
2023/06/03 11:51:56;;;;;;;2.20;1.15;;;28.90;69.10;;;;;;5107737;28;20437;-59
2023/06/03 11:54:25;;;;;;;3.30;1.20;;;29.20;69.00;;;;;;5107367;28;20540;-60
2023/06/03 11:56:54;;;;;;;1.90;1.10;;;28.70;66.70;;;;;;5091026;28;20453;-60
2023/06/03 11:59:24;;;;;;;1.52;1.20;;;28.50;68.90;;;;;;5091693;28;20520;-59
2023/06/03 12:02:01;;;;;;;1.80;1.20;;;28.70;69.00;;;;;;5091645;28;20486;-59
2023/06/03 12:04:28;;;;;;;1.90;1.60;;;29.00;66.00;;;;;;5097388;28;20873;-58
2023/06/03 12:06:56;;;;;;;1.23;1.00;;;28.60;64.10;;;;;;5102365;28;20443;-59
2023/06/03 12:09:26;;;;;;;1.48;1.20;;;28.60;66.10;;;;;;5113164;28;20472;-59
2023/06/03 12:11:54;;;;;;;1.50;1.00;;;28.50;65.10;;;;;;5111106;28;20445;-59
2023/06/03 12:14:29;;;;;;;1.50;1.20;;;28.50;64.00;;;;;;5114308;28;20428;-61
2023/06/03 12:17:07;;;;;;;1.70;1.20;;;28.80;65.80;;;;;;5099791;28;20441;-61
2023/06/03 12:19:38;;;;;;;2.28;1.15;;;28.60;65.40;;;;;;5098821;28;20505;-60
2023/06/03 12:22:05;;;;;;;2.30;1.20;;;28.40;65.60;;;;;;5092382;28;20916;-59
2023/06/03 12:24:34;;;;;;;1.40;1.10;;;28.00;67.20;;;;;;5094627;28;20486;-60
2023/06/03 12:27:19;;;;;;;1.50;1.13;;;28.20;67.40;;;;;;5093706;28;20441;-60
2023/06/03 12:29:48;;;;;;;2.28;1.10;;;28.10;65.40;;;;;;5093860;28;20444;-59
2023/06/03 12:32:16;;;;;;;1.50;1.10;;;27.60;66.60;;;;;;5096021;28;20430;-59
2023/06/03 12:34:44;;;;;;;3.30;1.30;;;27.70;66.60;;;;;;5101053;28;20432;-61
2023/06/03 12:37:12;;;;;;;2.50;1.20;;;27.50;67.50;;;;;;5099428;28;20428;-61
2023/06/03 12:39:51;;;;;;;1.30;1.10;;;27.30;65.30;;;;;;5096839;28;20430;-59
2023/06/03 12:42:19;;;;;;;2.73;1.40;;;27.20;66.60;;;;;;5092346;28;20434;-59
2023/06/03 12:44:49;;;;;;;2.70;1.63;;;27.20;65.70;;;;;;5092470;28;20425;-59
2023/06/03 12:47:18;;;;;;;2.90;1.20;;;27.80;66.60;;;;;;5089703;28;20482;-59
2023/06/03 12:50:02;;;;;;;2.10;1.10;;;28.50;65.90;;;;;;5098080;28;20537;-58
2023/06/03 12:52:31;;;;;;;1.70;1.25;;;28.80;63.70;;;;;;5098653;28;20423;-60
2023/06/03 12:54:59;;;;;;;1.63;1.00;;;29.50;62.70;;;;;;5107145;28;20747;-59
2023/06/03 12:57:26;;;;;;;2.85;1.13;;;29.60;62.10;;;;;;5109526;28;20750;-59
2023/06/03 13:00:08;;;;;;;2.50;1.30;;;29.20;61.70;;;;;;5110869;28;20492;-58